Terminal Aerodrome Forecast
Issued by NWS Lake Charles, LA

Home | Current Version | Previous Version | Text Only | Print | Product List | Glossary On
Versions: 1 2 3 4 5 6 7 8 9 10 11 12 13 14 15
818
FTUS44 KLCH 241853 AAA
TAFAEX
TAF AMD
KAEX 241853Z 2419/2518 VRB05KT P6SM VCTS SCT035CB SCT070 BKN200
      TEMPO 2419/2423 VRB15G30KT 1SM +TSRA BKN020CB
     FM250200 00000KT P6SM SCT050 BKN250=

USA.gov is the U.S. government's official web portal to all federal, state and local government web resources and services.